Time;durP1;ratioP1;P1;durP2;ratioP2;P2;SDS_P1;SDS_P2;PMS_P1;PMS_P2;Temp;Humidity;BMP_temperature;BMP_pressure;BME280_temperature;BME280_humidity;BME280_pressure;Samples;Min_cycle;Max_cycle;Signal;HPM_P1;HPM_P2
2022/07/13 00:00:40;;;;;;;2.72;1.50;;;24.10;54.50;;;;;;5004211;28;20107;-75
2022/07/13 00:03:06;;;;;;;2.83;1.25;;;24.00;54.40;;;;;;4999823;28;20069;-74
2022/07/13 00:05:32;;;;;;;2.88;1.33;;;23.90;54.30;;;;;;5003056;28;20305;-75
2022/07/13 00:07:57;;;;;;;3.05;1.60;;;23.90;54.50;;;;;;5003883;28;20036;-75
2022/07/13 00:10:23;;;;;;;3.42;1.70;;;23.90;54.50;;;;;;5003629;28;20379;-75
2022/07/13 00:12:49;;;;;;;2.17;1.52;;;23.80;54.40;;;;;;5003874;28;20755;-75
2022/07/13 00:15:15;;;;;;;3.53;1.92;;;23.80;54.50;;;;;;5002641;28;20084;-75
2022/07/13 00:17:41;;;;;;;1.55;1.20;;;23.70;54.40;;;;;;4989018;28;20027;-75
2022/07/13 00:20:07;;;;;;;2.63;1.38;;;23.70;54.50;;;;;;5018812;28;20034;-75
2022/07/13 00:22:33;;;;;;;3.53;1.92;;;23.60;54.40;;;;;;5002942;28;20414;-75
2022/07/13 00:24:59;;;;;;;3.15;1.75;;;23.60;54.50;;;;;;4986539;28;20045;-75
2022/07/13 00:27:25;;;;;;;5.72;1.75;;;23.60;54.60;;;;;;5008928;28;20050;-77
2022/07/13 00:29:51;;;;;;;2.65;1.60;;;23.50;54.50;;;;;;5004911;28;20050;-75
2022/07/13 00:32:17;;;;;;;1.48;1.27;;;23.50;54.50;;;;;;5003226;28;20474;-75
2022/07/13 00:34:43;;;;;;;2.15;1.50;;;23.50;54.60;;;;;;4993124;28;20057;-75
2022/07/13 00:37:10;;;;;;;2.00;1.55;;;23.40;54.50;;;;;;4998862;28;20582;-75
2022/07/13 00:39:36;;;;;;;2.45;1.60;;;23.40;54.60;;;;;;4989947;28;20046;-75
2022/07/13 00:42:02;;;;;;;4.53;1.90;;;23.30;54.50;;;;;;4997114;28;20027;-75
2022/07/13 00:44:28;;;;;;;3.03;1.85;;;23.30;54.60;;;;;;5000652;28;20053;-76
2022/07/13 00:46:55;;;;;;;5.32;2.00;;;23.30;54.70;;;;;;4984306;28;20493;-76
2022/07/13 00:49:22;;;;;;;2.03;1.20;;;23.20;54.60;;;;;;4997445;28;20602;-75
2022/07/13 00:51:49;;;;;;;2.33;1.50;;;23.20;54.70;;;;;;4995241;28;20123;-76
2022/07/13 00:54:18;;;;;;;1.85;1.30;;;23.10;54.60;;;;;;4997522;28;20315;-75
2022/07/13 00:56:44;;;;;;;1.80;1.30;;;23.10;54.70;;;;;;4987819;28;20030;-75
2022/07/13 00:59:10;;;;;;;1.58;1.13;;;23.10;54.80;;;;;;4987022;28;20085;-75
2022/07/13 01:01:36;;;;;;;1.35;1.25;;;23.10;54.90;;;;;;4986142;28;20076;-76
2022/07/13 01:04:02;;;;;;;2.55;1.65;;;23.00;54.80;;;;;;4994742;28;20410;-75
2022/07/13 01:06:28;;;;;;;1.73;1.50;;;22.90;54.80;;;;;;5010272;28;20064;-75
2022/07/13 01:08:54;;;;;;;2.40;1.58;;;22.90;54.80;;;;;;4993864;28;20145;-75
2022/07/13 01:11:20;;;;;;;2.55;1.40;;;22.80;54.80;;;;;;4987349;28;20034;-75
2022/07/13 01:13:46;;;;;;;2.67;1.52;;;22.80;54.90;;;;;;4994487;28;20439;-75
2022/07/13 01:16:12;;;;;;;2.20;1.63;;;22.70;54.80;;;;;;4994293;28;20031;-75
2022/07/13 01:18:39;;;;;;;1.95;1.63;;;22.70;55.00;;;;;;4988940;28;20030;-75
2022/07/13 01:21:06;;;;;;;1.50;1.40;;;22.70;55.10;;;;;;4990235;28;20041;-75
2022/07/13 01:23:32;;;;;;;2.28;1.63;;;22.60;55.00;;;;;;4988925;28;20096;-76
2022/07/13 01:25:58;;;;;;;4.57;1.80;;;22.60;55.20;;;;;;4982232;28;20042;-75
2022/07/13 01:28:25;;;;;;;1.92;1.73;;;22.50;55.10;;;;;;4992894;28;20104;-75
2022/07/13 01:30:51;;;;;;;3.28;1.40;;;22.50;55.20;;;;;;5002336;28;20040;-76
2022/07/13 01:33:17;;;;;;;5.05;1.35;;;22.50;55.30;;;;;;4991881;28;20026;-76
2022/07/13 01:35:43;;;;;;;3.75;1.70;;;22.40;55.20;;;;;;4997855;28;20030;-76
2022/07/13 01:38:09;;;;;;;1.75;1.40;;;22.40;55.30;;;;;;4996442;28;20100;-75
2022/07/13 01:40:35;;;;;;;2.13;1.60;;;22.30;55.20;;;;;;5008447;28;20030;-76
2022/07/13 01:43:02;;;;;;;2.00;1.50;;;22.30;55.40;;;;;;4994757;28;20031;-76
2022/07/13 01:45:28;;;;;;;1.20;1.10;;;22.30;55.40;;;;;;5016319;28;20081;-75
2022/07/13 01:47:56;;;;;;;2.05;1.33;;;22.20;55.40;;;;;;4989969;28;20042;-76
2022/07/13 01:50:25;;;;;;;2.38;1.52;;;22.20;55.50;;;;;;4996989;28;20045;-76
2022/07/13 01:52:52;;;;;;;2.50;2.30;;;22.20;55.60;;;;;;5004137;28;20034;-76
2022/07/13 01:55:18;;;;;;;1.55;1.30;;;22.10;55.50;;;;;;4996370;28;20057;-75
2022/07/13 01:57:45;;;;;;;2.38;1.42;;;22.10;55.70;;;;;;4993770;28;20319;-76
2022/07/13 02:00:17;;;;;;;2.38;1.30;;;22.00;55.60;;;;;;5004100;28;20034;-76
2022/07/13 02:02:45;;;;;;;1.85;1.55;;;22.00;55.80;;;;;;5001652;28;20105;-76
2022/07/13 02:05:14;;;;;;;2.28;1.67;;;21.90;55.60;;;;;;4985942;28;20033;-76
2022/07/13 02:07:41;;;;;;;1.80;1.48;;;21.90;55.70;;;;;;5003764;28;20371;-76
2022/07/13 02:10:09;;;;;;;1.90;1.63;;;21.90;55.90;;;;;;5015844;28;20889;-77
2022/07/13 02:12:36;;;;;;;2.95;1.98;;;21.90;56.00;;;;;;5007163;28;20153;-76
2022/07/13 02:15:05;;;;;;;2.00;1.20;;;21.80;55.90;;;;;;4998749;28;20210;-76
2022/07/13 02:17:31;;;;;;;2.10;1.38;;;21.70;55.90;;;;;;5007778;28;20626;-76
2022/07/13 02:19:58;;;;;;;2.03;1.70;;;21.70;56.00;;;;;;4999521;28;20540;-76
2022/07/13 02:22:23;;;;;;;1.88;1.38;;;21.70;56.10;;;;;;4996337;28;20022;-75
2022/07/13 02:24:49;;;;;;;1.85;1.30;;;21.60;56.10;;;;;;4994875;28;20033;-75
2022/07/13 02:27:15;;;;;;;1.30;1.20;;;21.60;56.40;;;;;;4996289;28;20196;-75
2022/07/13 02:29:42;;;;;;;1.60;1.50;;;21.50;56.20;;;;;;4993243;28;20414;-76
2022/07/13 02:32:08;;;;;;;1.50;1.40;;;21.50;56.30;;;;;;4997338;28;20026;-76
2022/07/13 02:34:34;;;;;;;1.48;1.35;;;21.40;56.30;;;;;;4992327;28;20513;-75
2022/07/13 02:37:00;;;;;;;2.45;1.50;;;21.40;56.40;;;;;;5015378;28;20041;-76
2022/07/13 02:39:26;;;;;;;1.85;1.30;;;21.40;56.50;;;;;;5016735;28;20045;-75
2022/07/13 02:41:52;;;;;;;2.42;1.48;;;21.30;56.40;;;;;;5000878;28;20069;-76
2022/07/13 02:44:18;;;;;;;3.40;1.88;;;21.30;56.60;;;;;;4993364;28;20034;-76
2022/07/13 02:46:44;;;;;;;2.33;1.40;;;21.30;56.70;;;;;;5016483;28;20034;-76
2022/07/13 02:49:10;;;;;;;2.58;1.30;;;21.20;56.60;;;;;;4992278;28;20520;-76
2022/07/13 02:51:37;;;;;;;1.63;1.20;;;21.20;56.80;;;;;;5000849;28;20025;-76
2022/07/13 02:54:04;;;;;;;2.28;1.40;;;21.20;56.90;;;;;;4983055;28;20036;-76
2022/07/13 02:56:31;;;;;;;1.63;1.42;;;21.10;56.80;;;;;;4999684;28;20029;-76
2022/07/13 02:58:57;;;;;;;3.22;1.80;;;21.10;56.90;;;;;;4982199;28;20026;-76
2022/07/13 03:01:23;;;;;;;2.58;1.67;;;21.00;56.80;;;;;;4988166;28;20397;-77
2022/07/13 03:03:48;;;;;;;1.65;1.50;;;21.00;56.90;;;;;;5001663;28;20412;-77
2022/07/13 03:06:16;;;;;;;2.08;1.23;;;21.00;57.00;;;;;;4991146;28;20042;-75
2022/07/13 03:08:41;;;;;;;1.40;1.27;;;21.00;57.10;;;;;;5013277;28;20087;-75
2022/07/13 03:11:08;;;;;;;1.83;1.38;;;20.90;57.00;;;;;;4998581;28;20057;-75
2022/07/13 03:13:35;;;;;;;2.20;1.70;;;20.90;57.10;;;;;;4991614;28;20037;-75
2022/07/13 03:16:01;;;;;;;3.65;1.88;;;20.90;57.20;;;;;;4982682;28;20393;-75
2022/07/13 03:18:28;;;;;;;2.47;1.15;;;20.80;57.10;;;;;;5000769;28;20129;-76
2022/07/13 03:20:53;;;;;;;2.95;1.50;;;20.80;57.20;;;;;;4991645;28;20058;-76
2022/07/13 03:23:19;;;;;;;2.38;1.48;;;20.80;57.40;;;;;;4995995;28;20080;-76
2022/07/13 03:25:46;;;;;;;2.78;1.45;;;20.80;57.50;;;;;;4999681;28;20049;-76
2022/07/13 03:28:12;;;;;;;1.52;1.42;;;20.70;57.40;;;;;;5014111;28;20050;-75
2022/07/13 03:30:39;;;;;;;1.83;1.50;;;20.70;57.50;;;;;;4995534;28;20038;-75
2022/07/13 03:33:05;;;;;;;2.03;1.70;;;20.70;57.60;;;;;;4993881;28;20050;-75
2022/07/13 03:35:31;;;;;;;3.22;1.50;;;20.70;57.80;;;;;;4989419;28;20030;-77
2022/07/13 03:37:57;;;;;;;4.05;2.10;;;20.60;57.70;;;;;;4990876;28;20037;-76
2022/07/13 03:40:27;;;;;;;2.17;1.50;;;20.60;57.80;;;;;;4995644;28;20018;-77
2022/07/13 03:42:53;;;;;;;3.42;2.28;;;20.60;57.90;;;;;;4991880;28;20556;-76
2022/07/13 03:45:19;;;;;;;2.40;1.35;;;20.60;58.00;;;;;;5007893;28;20019;-76
2022/07/13 03:47:45;;;;;;;1.75;1.65;;;20.50;57.90;;;;;;5021083;28;20014;-76
2022/07/13 03:50:12;;;;;;;3.13;2.22;;;20.50;58.10;;;;;;5023552;28;20014;-75
2022/07/13 03:52:39;;;;;;;1.98;1.63;;;20.50;58.20;;;;;;4996996;28;20511;-75
2022/07/13 03:55:05;;;;;;;3.28;2.00;;;20.50;58.30;;;;;;4994752;28;20050;-77
2022/07/13 03:57:33;;;;;;;3.13;1.40;;;20.40;58.20;;;;;;4998731;28;20092;-76
2022/07/13 03:59:58;;;;;;;2.03;1.48;;;20.40;58.30;;;;;;4990583;28;20022;-76
2022/07/13 04:02:25;;;;;;;3.45;1.25;;;20.40;58.40;;;;;;4995728;28;20157;-75
2022/07/13 04:04:52;;;;;;;2.42;1.92;;;20.40;58.50;;;;;;5000490;28;20362;-76
2022/07/13 04:07:20;;;;;;;3.25;1.88;;;20.40;58.70;;;;;;4998565;28;20041;-76
2022/07/13 04:09:46;;;;;;;2.15;1.58;;;20.30;58.50;;;;;;4995552;28;20046;-75
2022/07/13 04:12:12;;;;;;;2.97;1.75;;;20.30;58.60;;;;;;4996554;28;20030;-76
2022/07/13 04:14:38;;;;;;;2.10;1.58;;;20.30;58.70;;;;;;4999830;28;20058;-77
2022/07/13 04:17:04;;;;;;;2.05;1.60;;;20.20;58.60;;;;;;4973375;28;20022;-76
2022/07/13 04:19:32;;;;;;;2.78;1.40;;;20.20;58.70;;;;;;5001768;28;20453;-76
2022/07/13 04:21:58;;;;;;;3.05;2.28;;;20.20;58.90;;;;;;4998253;28;20215;-75
2022/07/13 04:24:25;;;;;;;1.80;1.70;;;20.20;59.00;;;;;;5004842;28;20072;-75
2022/07/13 04:26:53;;;;;;;3.08;1.83;;;20.10;58.80;;;;;;4989593;28;20169;-76
2022/07/13 04:29:19;;;;;;;2.05;1.70;;;20.10;58.90;;;;;;4986086;28;20476;-75
2022/07/13 04:31:45;;;;;;;3.95;2.15;;;20.10;59.50;;;;;;5020722;28;20169;-77
2022/07/13 04:34:12;;;;;;;1.80;1.70;;;20.10;59.10;;;;;;4996656;28;20319;-75
2022/07/13 04:36:58;;;;;;;1.85;1.67;;;20.10;59.20;;;;;;4982143;28;20041;-75
2022/07/13 04:39:27;;;;;;;2.15;1.95;;;20.00;59.00;;;;;;4996604;28;20258;-76
2022/07/13 04:41:55;;;;;;;2.92;1.83;;;20.00;59.10;;;;;;4997521;28;20029;-77
2022/07/13 04:44:21;;;;;;;2.22;2.13;;;20.00;59.20;;;;;;4998680;28;20300;-76
2022/07/13 04:46:47;;;;;;;3.58;2.25;;;20.00;59.30;;;;;;4999063;28;20182;-76
2022/07/13 04:49:15;;;;;;;2.53;2.00;;;20.00;59.40;;;;;;4987707;28;20104;-75
2022/07/13 04:51:41;;;;;;;2.75;2.42;;;20.00;59.50;;;;;;4991101;28;20022;-76
2022/07/13 04:54:10;;;;;;;7.82;3.17;;;20.00;59.50;;;;;;4994332;28;20035;-76
2022/07/13 04:56:35;;;;;;;2.25;2.03;;;20.00;59.60;;;;;;4997484;28;20037;-75
2022/07/13 04:59:01;;;;;;;3.78;2.28;;;20.00;59.60;;;;;;4976861;28;20130;-76
2022/07/13 05:01:28;;;;;;;2.55;2.00;;;20.10;59.80;;;;;;4997308;28;20065;-76
2022/07/13 05:03:59;;;;;;;8.27;2.65;;;20.10;59.80;;;;;;5011463;28;20045;-75
2022/07/13 05:06:26;;;;;;;2.97;2.40;;;20.10;59.80;;;;;;4995267;28;20648;-75
2022/07/13 05:08:53;;;;;;;3.35;2.40;;;20.10;59.80;;;;;;4990147;28;20034;-75
2022/07/13 05:11:18;;;;;;;3.25;2.45;;;20.20;60.00;;;;;;4995010;28;20539;-75
2022/07/13 05:13:46;;;;;;;2.40;1.75;;;20.20;59.90;;;;;;5007528;28;20644;-75
2022/07/13 05:16:12;;;;;;;3.60;2.83;;;20.30;60.10;;;;;;4996805;28;20030;-76
2022/07/13 05:18:38;;;;;;;2.30;2.10;;;20.30;60.00;;;;;;4979395;28;20026;-75
2022/07/13 05:21:10;;;;;;;3.20;2.17;;;20.40;60.20;;;;;;4998241;28;20022;-75
2022/07/13 05:23:37;;;;;;;1.98;1.88;;;20.50;60.20;;;;;;4997441;28;20030;-78
2022/07/13 05:26:04;;;;;;;2.58;2.25;;;20.50;60.10;;;;;;4995955;28;20034;-75
2022/07/13 05:28:33;;;;;;;3.50;1.90;;;20.60;60.30;;;;;;4985530;28;20050;-76
2022/07/13 05:31:00;;;;;;;3.28;1.83;;;20.60;60.50;;;;;;4997163;28;20493;-75
2022/07/13 05:33:26;;;;;;;4.30;1.70;;;20.70;60.60;;;;;;5005050;28;20499;-76
2022/07/13 05:35:54;;;;;;;2.60;2.00;;;20.80;60.70;;;;;;4973130;28;20393;-77
2022/07/13 05:38:20;;;;;;;2.03;1.83;;;20.80;60.60;;;;;;4999990;28;20034;-76
2022/07/13 05:40:47;;;;;;;3.25;1.88;;;20.90;60.70;;;;;;4989386;28;20034;-76
2022/07/13 05:43:14;;;;;;;2.88;2.58;;;20.90;60.70;;;;;;4998387;28;20041;-77
2022/07/13 05:45:40;;;;;;;3.13;2.33;;;21.00;60.80;;;;;;5008208;28;20045;-76
2022/07/13 05:48:06;;;;;;;3.75;2.25;;;21.10;60.90;;;;;;4996640;28;20034;-77
2022/07/13 05:50:32;;;;;;;2.53;2.10;;;21.20;61.00;;;;;;4995007;28;20410;-76
2022/07/13 05:52:58;;;;;;;2.20;1.77;;;21.20;60.90;;;;;;4991935;28;20038;-76
2022/07/13 05:55:24;;;;;;;3.92;2.42;;;21.30;61.00;;;;;;4996106;28;20053;-74
2022/07/13 05:57:50;;;;;;;2.47;2.28;;;21.40;61.00;;;;;;5001357;28;20026;-81
2022/07/13 06:00:16;;;;;;;2.75;2.05;;;21.40;61.00;;;;;;4993192;28;20038;-75
2022/07/13 06:02:42;;;;;;;2.92;1.80;;;21.50;61.10;;;;;;4990078;28;20037;-75
2022/07/13 06:05:09;;;;;;;3.15;1.90;;;21.50;61.00;;;;;;4993317;28;20026;-82
2022/07/13 06:07:35;;;;;;;3.47;1.95;;;21.70;61.30;;;;;;4998504;28;20096;-77
2022/07/13 06:10:01;;;;;;;3.78;2.10;;;21.80;61.30;;;;;;4997318;28;20030;-76
2022/07/13 06:12:28;;;;;;;3.78;2.40;;;22.00;61.50;;;;;;4986188;28;20074;-76
2022/07/13 06:14:54;;;;;;;2.00;1.73;;;22.20;61.60;;;;;;5010160;28;20033;-76
2022/07/13 06:17:22;;;;;;;4.45;1.65;;;22.40;61.60;;;;;;4997274;28;20044;-81
2022/07/13 06:19:49;;;;;;;3.88;1.90;;;22.60;61.90;;;;;;4995545;28;20249;-78
2022/07/13 06:22:15;;;;;;;4.05;1.70;;;22.90;62.20;;;;;;4991335;28;20065;-80
2022/07/13 06:24:42;;;;;;;3.97;2.05;;;23.20;62.20;;;;;;4987428;28;20045;-78
2022/07/13 06:27:08;;;;;;;3.15;2.08;;;23.50;62.20;;;;;;4994236;28;20239;-77
2022/07/13 06:29:35;;;;;;;3.83;2.15;;;23.70;62.10;;;;;;4996762;28;20192;-77
2022/07/13 06:32:00;;;;;;;2.28;2.00;;;23.90;62.00;;;;;;4998415;28;20288;-76
2022/07/13 06:34:26;;;;;;;3.25;2.20;;;24.00;61.80;;;;;;4992579;28;20060;-75
2022/07/13 06:36:52;;;;;;;4.13;2.03;;;24.20;61.70;;;;;;4994370;28;20041;-76
2022/07/13 06:39:18;;;;;;;1.95;1.52;;;24.40;62.10;;;;;;4992307;28;20026;-76
2022/07/13 06:41:45;;;;;;;2.17;1.67;;;24.50;61.30;;;;;;4999234;28;20057;-79
2022/07/13 06:44:12;;;;;;;1.98;1.80;;;24.70;61.20;;;;;;4994168;28;20202;-76
2022/07/13 06:46:38;;;;;;;2.10;1.88;;;24.90;61.20;;;;;;4991044;28;20105;-77
2022/07/13 06:49:04;;;;;;;2.65;1.85;;;24.90;60.80;;;;;;4984955;28;20030;-75
2022/07/13 06:51:30;;;;;;;4.57;2.25;;;25.10;60.70;;;;;;4993802;28;20386;-76
2022/07/13 06:53:56;;;;;;;2.83;2.17;;;25.20;60.30;;;;;;4995050;28;20108;-76
2022/07/13 06:56:22;;;;;;;3.78;1.48;;;25.30;60.00;;;;;;4993388;28;20410;-76
2022/07/13 06:58:48;;;;;;;3.83;2.33;;;25.50;59.80;;;;;;4994684;28;20022;-76
2022/07/13 07:01:14;;;;;;;1.92;1.77;;;25.70;59.50;;;;;;5008485;28;20132;-77
2022/07/13 07:03:40;;;;;;;2.10;1.65;;;25.80;59.10;;;;;;4989379;28;20532;-75
2022/07/13 07:06:06;;;;;;;2.22;1.58;;;25.90;58.70;;;;;;4992215;28;20046;-76
2022/07/13 07:08:32;;;;;;;2.67;1.50;;;26.00;58.50;;;;;;4994417;28;20034;-76
2022/07/13 07:10:58;;;;;;;2.20;1.60;;;26.10;58.30;;;;;;4996103;28;20049;-75
2022/07/13 07:13:24;;;;;;;1.98;1.60;;;26.30;58.10;;;;;;4994114;28;20030;-76
2022/07/13 07:15:51;;;;;;;3.83;1.65;;;26.50;57.80;;;;;;4992761;28;20069;-75
2022/07/13 07:18:18;;;;;;;2.00;1.60;;;26.60;57.40;;;;;;5004848;28;20117;-75
2022/07/13 07:20:44;;;;;;;3.13;2.42;;;27.00;57.00;;;;;;4998325;28;20027;-75
2022/07/13 07:23:09;;;;;;;1.90;1.60;;;27.30;56.40;;;;;;4995437;28;20508;-75
2022/07/13 07:25:35;;;;;;;1.90;1.60;;;27.80;55.80;;;;;;4992289;28;20154;-75
2022/07/13 07:28:02;;;;;;;2.83;1.70;;;28.30;54.90;;;;;;4992082;28;20671;-77
2022/07/13 07:30:28;;;;;;;1.85;1.42;;;28.70;54.20;;;;;;4990329;28;20522;-76
2022/07/13 07:32:54;;;;;;;4.10;1.52;;;29.00;53.80;;;;;;4996764;28;20133;-75
2022/07/13 07:35:20;;;;;;;1.60;1.50;;;29.20;53.40;;;;;;4991510;28;20022;-76
2022/07/13 07:37:45;;;;;;;2.08;1.55;;;29.50;53.10;;;;;;4997068;28;20035;-77
2022/07/13 07:40:11;;;;;;;1.23;1.13;;;29.70;52.50;;;;;;4993918;28;20109;-75
2022/07/13 07:42:37;;;;;;;1.58;1.45;;;29.80;52.20;;;;;;4995883;28;20392;-75
2022/07/13 07:45:04;;;;;;;1.90;1.50;;;29.70;52.00;;;;;;4995440;28;20033;-75
2022/07/13 07:47:30;;;;;;;2.53;1.67;;;29.60;51.80;;;;;;4990318;28;20045;-75
2022/07/13 07:49:56;;;;;;;1.83;1.73;;;29.50;51.70;;;;;;4996416;28;20041;-76
2022/07/13 07:52:22;;;;;;;2.47;1.80;;;29.40;51.70;;;;;;4997177;28;20421;-77
2022/07/13 07:54:48;;;;;;;1.50;1.40;;;29.40;51.60;;;;;;4994959;28;20043;-75
2022/07/13 07:57:15;;;;;;;4.13;1.30;;;29.70;51.40;;;;;;4995364;28;20026;-75
2022/07/13 07:59:41;;;;;;;2.70;1.90;;;30.10;50.80;;;;;;5014929;28;20034;-75
2022/07/13 08:02:08;;;;;;;4.35;1.58;;;30.50;50.10;;;;;;4996060;28;20080;-77
2022/07/13 08:04:34;;;;;;;4.32;2.15;;;30.90;49.50;;;;;;4992454;28;20036;-78
2022/07/13 08:07:01;;;;;;;1.80;1.63;;;31.20;49.10;;;;;;4995360;28;20034;-77
2022/07/13 08:09:27;;;;;;;1.50;1.30;;;31.50;48.60;;;;;;5004278;28;20061;-77
2022/07/13 08:11:53;;;;;;;2.08;1.48;;;31.70;48.20;;;;;;4996013;28;20038;-76
2022/07/13 08:14:21;;;;;;;4.20;1.88;;;31.90;48.00;;;;;;4985818;28;20117;-77
2022/07/13 08:16:47;;;;;;;4.55;2.22;;;31.80;47.60;;;;;;4992533;28;20129;-76
2022/07/13 08:19:13;;;;;;;2.20;1.92;;;31.60;47.20;;;;;;4990197;28;20025;-78
2022/07/13 08:21:39;;;;;;;2.47;2.25;;;31.40;47.10;;;;;;4997596;28;20038;-77
2022/07/13 08:24:05;;;;;;;3.65;2.30;;;31.30;47.00;;;;;;4999307;28;20030;-77
2022/07/13 08:26:32;;;;;;;7.80;2.58;;;31.20;46.80;;;;;;4990697;28;20038;-77
2022/07/13 08:28:59;;;;;;;6.05;2.10;;;31.00;46.70;;;;;;4991225;28;20049;-77
2022/07/13 08:31:25;;;;;;;2.53;2.05;;;30.80;46.90;;;;;;4991653;28;20802;-78
2022/07/13 08:39:23;;;;;;;3.42;2.13;;;30.10;47.50;;;;;;5026542;28;20069;-76
2022/07/13 08:41:49;;;;;;;3.08;2.40;;;29.90;47.60;;;;;;5010382;28;20032;-77
2022/07/13 08:44:16;;;;;;;3.83;3.08;;;29.70;47.70;;;;;;5029142;28;20108;-77
2022/07/13 08:46:43;;;;;;;2.97;2.30;;;29.60;47.80;;;;;;5012651;28;20033;-77
2022/07/13 08:49:09;;;;;;;2.95;2.03;;;29.40;48.00;;;;;;5017298;28;20054;-77
2022/07/13 08:51:36;;;;;;;2.45;1.90;;;29.30;48.20;;;;;;5009546;28;20036;-76
2022/07/13 08:54:04;;;;;;;5.43;2.08;;;29.20;48.30;;;;;;5005302;28;20026;-77
2022/07/13 08:56:32;;;;;;;6.13;3.00;;;29.00;48.30;;;;;;4999612;28;20497;-76
2022/07/13 08:59:02;;;;;;;3.47;2.50;;;28.90;48.40;;;;;;4982042;28;20042;-76
2022/07/13 09:01:27;;;;;;;2.17;1.65;;;28.80;48.50;;;;;;4993405;28;20085;-76
2022/07/13 09:03:53;;;;;;;6.53;2.72;;;28.70;48.70;;;;;;4997391;28;20180;-75
2022/07/13 09:06:38;;;;;;;4.25;2.30;;;28.70;48.80;;;;;;4988895;28;20065;-75
2022/07/13 09:09:22;;;;;;;2.63;2.30;;;28.60;48.80;;;;;;4989888;28;20539;-76
2022/07/13 09:11:48;;;;;;;4.20;2.67;;;28.60;48.90;;;;;;4989996;28;20033;-79
2022/07/13 09:14:26;;;;;;;3.35;2.08;;;28.60;48.70;;;;;;4990920;28;20024;-77
2022/07/13 09:16:52;;;;;;;2.70;2.00;;;28.70;48.70;;;;;;4993021;28;20029;-77
2022/07/13 09:19:24;;;;;;;2.00;1.90;;;28.70;48.80;;;;;;4990229;28;20393;-76
2022/07/13 09:21:51;;;;;;;3.33;1.92;;;28.70;48.70;;;;;;4988527;28;20430;-77
2022/07/13 09:24:17;;;;;;;2.95;2.42;;;28.70;48.80;;;;;;4995310;28;20343;-76
2022/07/13 09:26:45;;;;;;;4.55;2.13;;;28.70;48.80;;;;;;4990045;28;20045;-76
2022/07/13 09:29:11;;;;;;;3.22;2.05;;;28.70;48.80;;;;;;4991970;28;20029;-77
2022/07/13 09:31:55;;;;;;;4.63;2.08;;;28.70;48.90;;;;;;4985467;28;20255;-76
2022/07/13 09:34:46;;;;;;;3.50;2.25;;;28.70;48.80;;;;;;4987804;28;20030;-76
2022/07/13 09:37:14;;;;;;;2.58;2.38;;;28.70;48.90;;;;;;4991160;28;20040;-77
2022/07/13 09:39:56;;;;;;;2.85;2.00;;;28.60;48.90;;;;;;4992928;28;20023;-76
2022/07/13 09:42:30;;;;;;;2.10;2.00;;;28.50;49.00;;;;;;4994001;28;20030;-77
2022/07/13 09:47:53;;;;;;;3.67;2.45;;;28.20;49.30;;;;;;4995122;28;20463;-77
2022/07/13 09:50:22;;;;;;;4.47;2.70;;;28.10;49.60;;;;;;4997323;28;20026;-78
2022/07/13 09:52:50;;;;;;;3.45;2.63;;;28.10;49.80;;;;;;4991932;28;20030;-76
2022/07/13 09:55:22;;;;;;;3.20;2.90;;;28.00;49.90;;;;;;5000141;28;20072;-76
2022/07/13 09:57:52;;;;;;;4.78;2.33;;;28.20;49.70;;;;;;4992142;28;20106;-76
2022/07/13 10:00:19;;;;;;;3.60;2.63;;;28.40;49.40;;;;;;5000368;28;20038;-76
2022/07/13 10:02:47;;;;;;;2.95;2.45;;;28.70;49.00;;;;;;5018414;28;20527;-77
2022/07/13 10:05:14;;;;;;;4.35;2.60;;;29.10;48.70;;;;;;4972518;28;20045;-75
2022/07/13 10:07:42;;;;;;;2.58;2.38;;;29.40;48.30;;;;;;4990524;28;20070;-75
2022/07/13 10:10:13;;;;;;;3.63;2.65;;;29.60;47.90;;;;;;4993317;28;20034;-76
2022/07/13 10:12:40;;;;;;;3.47;1.95;;;29.80;47.70;;;;;;4994138;28;20065;-75
2022/07/13 10:15:10;;;;;;;2.45;2.10;;;29.80;47.40;;;;;;4995484;28;20448;-76
2022/07/13 10:17:37;;;;;;;2.95;1.40;;;29.80;47.20;;;;;;4993739;28;20026;-80
2022/07/13 10:20:06;;;;;;;3.58;1.42;;;29.70;47.30;;;;;;5011620;28;20268;-78
2022/07/13 10:22:45;;;;;;;1.55;1.45;;;29.50;47.30;;;;;;5002180;28;20036;-77
2022/07/13 10:25:13;;;;;;;2.25;1.48;;;29.30;47.30;;;;;;5013676;28;20030;-76
2022/07/13 10:27:43;;;;;;;1.35;1.25;;;29.20;47.40;;;;;;5009487;28;20054;-79
2022/07/13 10:30:19;;;;;;;3.58;1.38;;;29.10;47.40;;;;;;4992093;28;20127;-78
2022/07/13 10:32:46;;;;;;;3.10;1.40;;;29.00;47.40;;;;;;4994470;28;20030;-78
2022/07/13 10:35:16;;;;;;;2.30;1.40;;;29.00;47.40;;;;;;5011544;28;20588;-76
2022/07/13 10:38:00;;;;;;;2.65;1.50;;;29.00;47.30;;;;;;4995282;28;20034;-78
2022/07/13 10:40:34;;;;;;;3.72;1.50;;;29.10;47.70;;;;;;4998302;28;20033;-77
2022/07/13 10:43:01;;;;;;;2.17;1.70;;;29.10;46.90;;;;;;5002582;28;20386;-77
2022/07/13 10:45:38;;;;;;;2.90;1.50;;;29.20;46.80;;;;;;5005619;28;20355;-79
2022/07/13 10:48:20;;;;;;;1.00;0.98;;;29.40;46.60;;;;;;5005777;28;20172;-77
2022/07/13 10:50:48;;;;;;;1.83;1.13;;;29.60;46.30;;;;;;4998619;28;20036;-77
2022/07/13 10:53:18;;;;;;;2.67;1.63;;;29.80;46.10;;;;;;5020358;28;20314;-78
2022/07/13 10:55:49;;;;;;;2.53;1.42;;;29.90;45.80;;;;;;5004398;28;20029;-78
2022/07/13 10:58:48;;;;;;;2.17;1.38;;;30.10;45.70;;;;;;5007441;28;20109;-76
2022/07/13 11:01:35;;;;;;;2.00;1.40;;;30.30;45.30;;;;;;4971827;28;20042;-78
2022/07/13 11:04:02;;;;;;;2.33;1.58;;;30.50;45.00;;;;;;4992622;28;20525;-78
2022/07/13 11:06:29;;;;;;;3.05;1.30;;;30.60;44.90;;;;;;4984822;28;20072;-77
2022/07/13 11:09:12;;;;;;;4.43;1.80;;;30.60;44.80;;;;;;5003033;28;20397;-80
2022/07/13 11:11:45;;;;;;;1.55;1.33;;;30.60;44.60;;;;;;5019813;28;20432;-80
2022/07/13 11:14:48;;;;;;;2.20;1.40;;;30.50;44.60;;;;;;5004102;28;20120;-80
2022/07/13 11:17:14;;;;;;;2.30;1.48;;;30.50;44.60;;;;;;5004133;28;20030;-79
2022/07/13 11:20:13;;;;;;;2.15;1.27;;;30.60;44.70;;;;;;5003588;28;20441;-79
2022/07/13 11:25:47;;;;;;;1.48;1.30;;;30.90;43.90;;;;;;5004368;28;20034;-78
2022/07/13 11:28:18;;;;;;;1.70;1.13;;;31.00;43.70;;;;;;5016444;28;20050;-78
2022/07/13 11:30:48;;;;;;;3.55;1.27;;;31.10;43.50;;;;;;5005038;28;20116;-76
2022/07/13 11:33:16;;;;;;;1.92;1.33;;;31.00;43.30;;;;;;5003756;28;20038;-78
2022/07/13 11:35:47;;;;;;;2.45;1.48;;;31.10;43.20;;;;;;4993810;28;20078;-78
2022/07/13 11:38:15;;;;;;;3.58;1.50;;;31.20;43.20;;;;;;5017551;28;20061;-77
2022/07/13 11:40:41;;;;;;;3.40;1.58;;;31.40;43.00;;;;;;5004064;28;20087;-78
2022/07/13 11:43:08;;;;;;;1.60;1.38;;;31.80;42.70;;;;;;4998372;28;20026;-77
2022/07/13 11:45:34;;;;;;;1.85;1.42;;;32.10;42.20;;;;;;5012657;28;20041;-78
2022/07/13 11:48:05;;;;;;;1.95;1.20;;;32.30;41.70;;;;;;4999111;28;20073;-78
2022/07/13 11:50:45;;;;;;;1.52;1.42;;;32.40;41.40;;;;;;5004532;28;20030;-77
2022/07/13 11:53:27;;;;;;;1.52;1.35;;;32.20;41.30;;;;;;4986355;28;20292;-78
2022/07/13 11:55:55;;;;;;;1.65;1.13;;;31.90;41.60;;;;;;5008523;28;20132;-79
2022/07/13 11:58:31;;;;;;;1.30;1.10;;;31.70;42.00;;;;;;4995777;28;20482;-78
2022/07/13 12:00:57;;;;;;;1.38;1.27;;;31.40;42.80;;;;;;5001999;28;20034;-77
2022/07/13 12:03:32;;;;;;;2.47;1.13;;;31.10;42.50;;;;;;5000760;28;21273;-77
2022/07/13 12:06:07;;;;;;;1.65;1.38;;;31.00;42.70;;;;;;4995329;28;20041;-79
2022/07/13 12:08:36;;;;;;;2.15;1.30;;;31.10;42.50;;;;;;5017081;28;20084;-77
2022/07/13 12:11:04;;;;;;;2.20;1.55;;;31.40;42.20;;;;;;4992463;28;20042;-78
2022/07/13 12:13:35;;;;;;;1.42;1.10;;;31.50;41.80;;;;;;5016655;28;20034;-78
2022/07/13 12:16:03;;;;;;;2.85;1.42;;;31.50;41.70;;;;;;4988078;28;20331;-77
2022/07/13 12:18:29;;;;;;;1.35;1.10;;;31.50;41.60;;;;;;4994010;28;20026;-79
2022/07/13 12:20:56;;;;;;;1.45;1.33;;;31.40;41.60;;;;;;4998994;28;20037;-88
2022/07/13 12:23:23;;;;;;;1.27;1.00;;;31.40;41.60;;;;;;4997944;28;20034;-77
2022/07/13 12:26:04;;;;;;;1.88;1.45;;;31.50;41.50;;;;;;4990146;28;20092;-80
2022/07/13 12:28:30;;;;;;;3.75;1.35;;;31.50;41.50;;;;;;5004519;28;20116;-79
2022/07/13 12:30:59;;;;;;;3.25;1.45;;;31.40;41.80;;;;;;5004887;28;20130;-81
2022/07/13 12:33:25;;;;;;;2.15;1.60;;;31.30;42.10;;;;;;4991828;28;20030;-78
2022/07/13 12:36:03;;;;;;;2.40;1.52;;;31.30;42.50;;;;;;4985963;28;20129;-78
2022/07/13 12:38:30;;;;;;;3.97;2.10;;;31.60;42.70;;;;;;4997199;28;20453;-77
2022/07/13 12:40:58;;;;;;;2.22;2.00;;;31.80;42.60;;;;;;4996967;28;20500;-78
2022/07/13 12:43:35;;;;;;;2.92;1.58;;;32.20;42.50;;;;;;4992027;28;20040;-76
2022/07/13 12:46:03;;;;;;;2.67;1.60;;;32.40;42.30;;;;;;4995537;28;21369;-78
2022/07/13 12:48:32;;;;;;;1.88;1.52;;;32.50;42.10;;;;;;4995276;28;20032;-77
2022/07/13 12:51:06;;;;;;;2.30;1.65;;;32.80;42.10;;;;;;5009550;28;20028;-78
2022/07/13 12:53:52;;;;;;;2.85;1.50;;;33.00;41.90;;;;;;4998257;28;20025;-78
2022/07/13 12:56:23;;;;;;;2.33;1.67;;;33.20;41.50;;;;;;4992843;28;20099;-78
2022/07/13 12:58:51;;;;;;;2.15;1.70;;;33.30;41.20;;;;;;4996960;28;20089;-78
2022/07/13 13:01:29;;;;;;;1.60;1.50;;;33.40;41.00;;;;;;4993022;28;20398;-79
2022/07/13 13:03:56;;;;;;;3.60;1.65;;;33.50;40.80;;;;;;4991811;28;20033;-78